Time;durP1;ratioP1;P1;durP2;ratioP2;P2;SDS_P1;SDS_P2;PMS_P1;PMS_P2;Temp;Humidity;BMP_temperature;BMP_pressure;BME280_temperature;BME280_humidity;BME280_pressure;Samples;Min_cycle;Max_cycle;Signal;HPM_P1;HPM_P2
2024/02/22 00:00:26;;;;;;;0.87;0.80;;;8.40;99.90;;;;;;5012490;28;20030;-53
2024/02/22 00:02:51;;;;;;;1.90;0.80;;;8.40;99.90;;;;;;5014080;28;20045;-56
2024/02/22 00:05:18;;;;;;;2.10;0.83;;;8.40;99.90;;;;;;5013951;28;20022;-55
2024/02/22 00:07:43;;;;;;;0.87;0.63;;;8.40;99.90;;;;;;5013990;28;20034;-53
2024/02/22 00:10:12;;;;;;;3.13;0.80;;;8.50;99.90;;;;;;5012374;28;20514;-55
2024/02/22 00:12:39;;;;;;;1.93;0.80;;;8.50;99.90;;;;;;5013796;28;20491;-54
2024/02/22 00:15:05;;;;;;;1.67;0.70;;;8.40;99.90;;;;;;5013710;28;20026;-58
2024/02/22 00:17:32;;;;;;;1.60;0.60;;;8.40;99.90;;;;;;5013373;28;20479;-56
2024/02/22 00:19:58;;;;;;;0.83;0.57;;;8.50;99.90;;;;;;5013646;28;20034;-53
2024/02/22 00:22:24;;;;;;;1.40;0.70;;;8.60;99.90;;;;;;5013683;28;20124;-56
2024/02/22 00:24:49;;;;;;;1.67;0.60;;;8.60;99.90;;;;;;5013884;28;20030;-56
2024/02/22 00:27:15;;;;;;;0.87;0.60;;;8.60;99.90;;;;;;5013442;28;20062;-56
2024/02/22 00:29:43;;;;;;;1.07;0.50;;;8.60;99.90;;;;;;5013094;28;20026;-56
2024/02/22 00:32:09;;;;;;;3.93;0.77;;;8.60;99.90;;;;;;5011921;28;20100;-56
2024/02/22 00:34:34;;;;;;;1.23;0.50;;;8.60;99.90;;;;;;5013285;28;20026;-55
2024/02/22 00:37:00;;;;;;;6.70;3.23;;;8.60;99.90;;;;;;5013190;28;20026;-53
2024/02/22 00:39:26;;;;;;;2.03;1.17;;;8.60;99.90;;;;;;5013214;28;20098;-52
2024/02/22 00:41:51;;;;;;;1.13;0.70;;;8.70;99.90;;;;;;5013084;28;20034;-55
2024/02/22 00:44:17;;;;;;;3.00;0.67;;;8.70;99.90;;;;;;5013002;28;20036;-53
2024/02/22 00:46:42;;;;;;;1.43;0.70;;;8.60;99.90;;;;;;5011992;28;20416;-52
2024/02/22 00:49:08;;;;;;;2.70;0.93;;;8.60;99.90;;;;;;5012777;28;20026;-54
2024/02/22 00:51:34;;;;;;;1.43;0.60;;;8.60;99.90;;;;;;5012691;28;20478;-50
2024/02/22 00:53:59;;;;;;;0.80;0.60;;;8.70;99.90;;;;;;5013170;28;20490;-55
2024/02/22 00:56:25;;;;;;;1.50;0.70;;;8.70;99.90;;;;;;5012878;28;20079;-56
2024/02/22 00:58:51;;;;;;;0.80;0.50;;;8.60;99.90;;;;;;5012871;28;20030;-57
2024/02/22 01:01:17;;;;;;;1.83;0.60;;;8.70;99.90;;;;;;5012588;28;20034;-52
2024/02/22 01:03:42;;;;;;;3.40;0.60;;;8.70;99.90;;;;;;5013012;28;20029;-53
2024/02/22 01:06:10;;;;;;;0.80;0.53;;;8.70;99.90;;;;;;5013068;28;20040;-54
2024/02/22 01:08:36;;;;;;;1.20;0.80;;;8.70;99.90;;;;;;5012933;28;20074;-56
2024/02/22 01:11:03;;;;;;;3.03;0.90;;;8.70;99.90;;;;;;5012544;28;20092;-53
2024/02/22 01:13:29;;;;;;;3.03;0.87;;;8.60;99.90;;;;;;5013511;28;20034;-56
2024/02/22 01:15:55;;;;;;;2.30;0.83;;;8.70;99.90;;;;;;5014534;28;20026;-52
2024/02/22 01:18:20;;;;;;;1.07;0.70;;;8.70;99.90;;;;;;5014208;28;20422;-56
2024/02/22 01:20:46;;;;;;;1.37;0.67;;;8.70;99.90;;;;;;5013111;28;20052;-55
2024/02/22 01:23:13;;;;;;;1.33;0.70;;;8.70;99.90;;;;;;5013086;28;20037;-53
2024/02/22 01:25:39;;;;;;;5.40;2.13;;;8.70;99.90;;;;;;5011827;28;20079;-54
2024/02/22 01:28:06;;;;;;;7.17;3.20;;;8.80;99.90;;;;;;5011994;28;20135;-56
2024/02/22 01:30:32;;;;;;;2.80;1.20;;;8.80;99.90;;;;;;5012181;28;20371;-56
2024/02/22 01:32:57;;;;;;;1.30;0.73;;;8.90;99.90;;;;;;5011948;28;20034;-55
2024/02/22 01:35:23;;;;;;;1.37;0.80;;;8.90;99.90;;;;;;5011946;28;20506;-55
2024/02/22 01:37:49;;;;;;;1.43;0.80;;;8.90;99.90;;;;;;5011863;28;20029;-53
2024/02/22 01:40:15;;;;;;;1.60;0.70;;;8.90;99.90;;;;;;5011607;28;20042;-54
2024/02/22 01:42:41;;;;;;;1.87;0.57;;;8.90;99.90;;;;;;5011872;28;20491;-55
2024/02/22 01:45:07;;;;;;;1.30;0.60;;;8.90;99.90;;;;;;5011741;28;20038;-56
2024/02/22 01:47:34;;;;;;;1.43;0.60;;;8.90;99.90;;;;;;5011798;28;20037;-54
2024/02/22 01:50:00;;;;;;;1.33;0.60;;;8.90;99.90;;;;;;5011819;28;20034;-54
2024/02/22 01:52:27;;;;;;;1.30;0.60;;;9.00;99.90;;;;;;5011958;28;20482;-57
2024/02/22 01:54:53;;;;;;;1.20;0.70;;;8.90;99.90;;;;;;5011819;28;20399;-50
2024/02/22 01:57:19;;;;;;;1.23;0.70;;;8.90;99.90;;;;;;5011669;28;20037;-54
2024/02/22 01:59:45;;;;;;;0.77;0.43;;;8.90;99.90;;;;;;5009470;28;20034;-51
2024/02/22 02:02:11;;;;;;;1.50;0.77;;;9.00;99.90;;;;;;5010055;28;20168;-52
2024/02/22 02:04:37;;;;;;;0.87;0.50;;;9.10;99.90;;;;;;5011549;28;20065;-56
2024/02/22 02:07:03;;;;;;;1.40;0.60;;;9.00;99.90;;;;;;5011567;28;20037;-55
2024/02/22 02:09:29;;;;;;;0.87;0.50;;;9.00;99.90;;;;;;5009539;28;20087;-54
2024/02/22 02:11:54;;;;;;;1.43;0.50;;;9.00;99.90;;;;;;5011513;28;20060;-57
2024/02/22 02:14:20;;;;;;;0.53;0.50;;;9.10;99.90;;;;;;5011566;28;20438;-52
2024/02/22 02:16:46;;;;;;;1.10;0.50;;;9.00;99.90;;;;;;5011897;28;20026;-52
2024/02/22 02:19:18;;;;;;;1.63;0.60;;;9.10;99.90;;;;;;5011302;28;20048;-54
2024/02/22 02:22:07;;;;;;;1.60;0.30;;;9.10;99.90;;;;;;5011364;28;20058;-55
2024/02/22 02:24:40;;;;;;;1.17;0.55;;;9.10;99.90;;;;;;5011292;28;20085;-53
2024/02/22 02:27:06;;;;;;;1.30;0.40;;;9.10;99.90;;;;;;5011471;28;20124;-56
2024/02/22 02:29:31;;;;;;;1.27;0.57;;;9.20;99.90;;;;;;5011049;28;20126;-56
2024/02/22 02:31:57;;;;;;;0.47;0.40;;;9.20;99.90;;;;;;5011353;28;20038;-55
2024/02/22 02:34:22;;;;;;;1.13;0.40;;;9.20;99.90;;;;;;5011283;28;20029;-54
2024/02/22 02:36:48;;;;;;;0.50;0.43;;;9.10;99.90;;;;;;5011218;28;20022;-54
2024/02/22 02:39:14;;;;;;;2.97;0.40;;;9.20;99.90;;;;;;5010901;28;20030;-56
2024/02/22 02:41:39;;;;;;;0.57;0.30;;;9.20;99.90;;;;;;5011033;28;20033;-56
2024/02/22 02:44:05;;;;;;;1.00;0.50;;;9.20;99.90;;;;;;5011024;28;20459;-55
2024/02/22 02:46:31;;;;;;;1.67;0.40;;;9.20;99.90;;;;;;5010937;28;20037;-56
2024/02/22 02:48:56;;;;;;;0.27;0.27;;;9.30;99.90;;;;;;5010943;28;20041;-56
2024/02/22 02:51:22;;;;;;;1.37;0.50;;;9.30;99.90;;;;;;5010845;28;20120;-55
2024/02/22 02:53:48;;;;;;;0.67;0.40;;;9.30;99.90;;;;;;5011058;28;20114;-56
2024/02/22 02:56:13;;;;;;;0.70;0.40;;;9.30;99.90;;;;;;5011031;28;20036;-54
2024/02/22 02:58:39;;;;;;;2.10;0.40;;;9.30;99.90;;;;;;5011456;28;20513;-55
2024/02/22 03:01:06;;;;;;;0.77;0.40;;;9.20;99.90;;;;;;5010578;28;20030;-56
2024/02/22 03:03:31;;;;;;;0.80;0.30;;;9.30;99.90;;;;;;5010883;28;20048;-56
2024/02/22 03:05:57;;;;;;;0.90;0.30;;;9.30;99.90;;;;;;5010905;28;20116;-55
2024/02/22 03:08:23;;;;;;;0.70;0.30;;;9.30;99.90;;;;;;5010810;28;20045;-54
2024/02/22 03:10:48;;;;;;;0.77;0.30;;;9.30;99.90;;;;;;5010524;28;20034;-51
2024/02/22 03:13:14;;;;;;;0.70;0.40;;;9.40;99.90;;;;;;5012833;28;20030;-54
2024/02/22 03:15:40;;;;;;;0.87;0.50;;;9.30;99.90;;;;;;5014685;28;20183;-51
2024/02/22 03:18:07;;;;;;;0.83;0.30;;;9.40;99.90;;;;;;5014609;28;20088;-54
2024/02/22 03:20:33;;;;;;;1.03;0.30;;;9.40;99.90;;;;;;5014542;28;20046;-55
2024/02/22 03:22:59;;;;;;;0.70;0.40;;;9.40;99.90;;;;;;5014695;28;20026;-52
2024/02/22 03:25:27;;;;;;;1.00;0.50;;;9.40;99.90;;;;;;5014570;28;20037;-54
2024/02/22 03:27:53;;;;;;;1.43;0.30;;;9.40;99.90;;;;;;5014668;28;20029;-52
2024/02/22 03:30:20;;;;;;;0.70;0.50;;;9.40;99.90;;;;;;5013174;28;20057;-54
2024/02/22 03:32:45;;;;;;;0.30;0.30;;;9.40;99.90;;;;;;5014547;28;20026;-57
2024/02/22 03:35:11;;;;;;;0.80;0.30;;;9.30;99.90;;;;;;5013032;28;20080;-52
2024/02/22 03:37:37;;;;;;;0.43;0.40;;;9.40;99.90;;;;;;5014337;28;20022;-55
2024/02/22 03:40:05;;;;;;;0.73;0.40;;;9.30;99.90;;;;;;5012762;28;20522;-55
2024/02/22 03:42:31;;;;;;;1.13;0.47;;;9.30;99.90;;;;;;5014267;28;20041;-56
2024/02/22 03:44:57;;;;;;;0.90;0.50;;;9.40;99.90;;;;;;5012649;28;20042;-56
2024/02/22 03:47:22;;;;;;;1.17;0.30;;;9.40;99.90;;;;;;5013905;28;20025;-53
2024/02/22 03:49:48;;;;;;;0.73;0.53;;;9.50;99.90;;;;;;5013783;28;20401;-55
2024/02/22 03:52:14;;;;;;;2.27;0.40;;;9.50;99.90;;;;;;5014025;28;20696;-56
2024/02/22 03:54:40;;;;;;;0.50;0.37;;;9.50;99.90;;;;;;5013978;28;20050;-57
2024/02/22 03:57:06;;;;;;;1.23;0.50;;;9.40;99.90;;;;;;5013346;28;20482;-54
2024/02/22 03:59:31;;;;;;;0.50;0.40;;;9.50;99.90;;;;;;5011660;28;20037;-57
2024/02/22 04:01:57;;;;;;;1.03;0.63;;;9.60;99.90;;;;;;5013725;28;20029;-58
2024/02/22 04:04:23;;;;;;;0.83;0.60;;;9.60;99.90;;;;;;5012339;28;20210;-56
2024/02/22 04:06:49;;;;;;;0.53;0.40;;;9.50;99.90;;;;;;5013996;28;20703;-58
2024/02/22 04:09:14;;;;;;;1.17;0.70;;;9.50;99.90;;;;;;5013304;28;20139;-56
2024/02/22 04:11:41;;;;;;;0.80;0.60;;;9.50;99.90;;;;;;5012078;28;20034;-57
2024/02/22 04:14:07;;;;;;;0.87;0.53;;;9.40;99.90;;;;;;5013607;28;20399;-56
2024/02/22 04:16:33;;;;;;;1.43;0.80;;;9.50;99.90;;;;;;5011866;28;20467;-53
2024/02/22 04:18:59;;;;;;;1.20;0.60;;;9.50;99.90;;;;;;5013684;28;20030;-55
2024/02/22 04:21:25;;;;;;;0.80;0.67;;;9.50;99.90;;;;;;5013284;28;20120;-55
2024/02/22 04:23:51;;;;;;;4.17;0.60;;;9.50;99.90;;;;;;5013092;28;20061;-54
2024/02/22 04:26:17;;;;;;;0.67;0.47;;;9.40;99.90;;;;;;5013358;28;20150;-50
2024/02/22 04:28:43;;;;;;;1.27;0.77;;;9.40;99.90;;;;;;5013564;28;20033;-53
2024/02/22 04:31:09;;;;;;;1.50;0.80;;;9.40;99.90;;;;;;5013122;28;20501;-51
2024/02/22 04:33:34;;;;;;;1.70;0.80;;;9.50;99.90;;;;;;5013371;28;20038;-53
2024/02/22 04:36:00;;;;;;;0.73;0.70;;;9.50;99.90;;;;;;5013255;28;20113;-51
2024/02/22 04:38:26;;;;;;;3.83;0.80;;;9.50;99.90;;;;;;5013344;28;20038;-56
2024/02/22 04:40:52;;;;;;;0.80;0.70;;;9.60;99.90;;;;;;5013018;28;20386;-56
2024/02/22 04:43:17;;;;;;;0.83;0.70;;;9.60;99.90;;;;;;5011824;28;20105;-57
2024/02/22 04:45:43;;;;;;;0.80;0.70;;;9.60;99.90;;;;;;5012955;28;20068;-55
2024/02/22 04:48:09;;;;;;;2.10;0.80;;;9.60;99.90;;;;;;5013248;28;20033;-54
2024/02/22 04:50:35;;;;;;;1.10;0.80;;;9.50;99.90;;;;;;5013043;28;20180;-55
2024/02/22 04:53:03;;;;;;;1.60;0.90;;;9.60;99.90;;;;;;5013200;28;20108;-54
2024/02/22 04:55:29;;;;;;;1.10;0.65;;;9.50;99.90;;;;;;5013063;28;20060;-52
2024/02/22 04:57:55;;;;;;;2.03;1.00;;;9.50;99.90;;;;;;5012980;28;20412;-54
2024/02/22 05:00:21;;;;;;;1.30;0.80;;;9.60;99.90;;;;;;5013252;28;20036;-56
2024/02/22 05:02:47;;;;;;;1.53;0.90;;;9.50;99.90;;;;;;5012970;28;20080;-54
2024/02/22 05:05:13;;;;;;;1.47;0.80;;;9.50;99.90;;;;;;5013142;28;20127;-55
2024/02/22 05:07:39;;;;;;;2.73;1.10;;;9.50;99.90;;;;;;5012998;28;20096;-55
2024/02/22 05:10:06;;;;;;;1.47;1.07;;;9.50;99.90;;;;;;5012685;28;20030;-55
2024/02/22 05:12:33;;;;;;;2.33;1.00;;;9.60;99.90;;;;;;5012867;28;20022;-54
2024/02/22 05:14:59;;;;;;;1.97;1.07;;;9.60;99.90;;;;;;5012615;28;20128;-51
2024/02/22 05:17:24;;;;;;;1.97;1.20;;;9.50;99.90;;;;;;5012381;28;20406;-53
2024/02/22 05:19:50;;;;;;;6.53;1.40;;;9.60;99.90;;;;;;5012678;28;20045;-53
2024/02/22 05:22:15;;;;;;;2.17;1.30;;;9.60;99.90;;;;;;5011267;28;20030;-51
2024/02/22 05:24:42;;;;;;;2.90;1.30;;;9.60;99.90;;;;;;5012492;28;20029;-56
2024/02/22 05:27:08;;;;;;;5.80;1.30;;;9.50;99.90;;;;;;5012270;28;20037;-54
2024/02/22 05:29:34;;;;;;;3.10;1.67;;;9.50;99.90;;;;;;5012235;28;20057;-56
2024/02/22 05:32:00;;;;;;;4.77;1.80;;;9.50;99.90;;;;;;5012342;28;20058;-51
2024/02/22 05:34:26;;;;;;;2.70;1.73;;;9.60;99.90;;;;;;5010408;28;20144;-53
2024/02/22 05:36:52;;;;;;;2.83;1.67;;;9.50;99.90;;;;;;5011699;28;20057;-56
2024/02/22 05:39:18;;;;;;;5.60;1.80;;;9.50;99.90;;;;;;5011819;28;20119;-54
2024/02/22 05:41:43;;;;;;;4.67;2.23;;;9.50;99.90;;;;;;5010801;28;20041;-50
2024/02/22 05:44:09;;;;;;;3.50;2.30;;;9.60;99.90;;;;;;5011937;28;20033;-54
2024/02/22 05:46:35;;;;;;;4.73;1.87;;;9.60;99.90;;;;;;5012006;28;20479;-53
2024/02/22 05:49:00;;;;;;;3.17;1.90;;;9.60;99.90;;;;;;5011827;28;20034;-54
2024/02/22 05:51:26;;;;;;;3.77;1.80;;;9.60;99.90;;;;;;5011740;28;20026;-53
2024/02/22 05:53:53;;;;;;;3.30;2.00;;;9.60;99.90;;;;;;5012145;28;20487;-53
2024/02/22 05:56:19;;;;;;;3.73;1.97;;;9.60;99.90;;;;;;5010512;28;20058;-51
2024/02/22 05:58:44;;;;;;;3.57;1.90;;;9.60;99.90;;;;;;5012114;28;20139;-53
2024/02/22 06:01:11;;;;;;;3.57;1.87;;;9.60;99.90;;;;;;5011639;28;20503;-53
2024/02/22 06:03:37;;;;;;;3.57;1.90;;;9.60;99.90;;;;;;5012124;28;20156;-54
2024/02/22 06:06:03;;;;;;;3.53;2.00;;;9.60;99.90;;;;;;5011864;28;20121;-54
2024/02/22 06:08:29;;;;;;;4.73;2.00;;;9.60;99.90;;;;;;5011764;28;20131;-56
2024/02/22 06:10:54;;;;;;;4.40;2.40;;;9.60;99.90;;;;;;5011507;28;20022;-53
2024/02/22 06:13:20;;;;;;;5.27;2.30;;;9.60;99.90;;;;;;5011785;28;20029;-57
2024/02/22 06:15:47;;;;;;;4.77;2.60;;;9.70;99.90;;;;;;5011708;28;20033;-55
2024/02/22 06:18:13;;;;;;;4.83;2.50;;;9.70;99.90;;;;;;5011560;28;20104;-53
2024/02/22 06:20:38;;;;;;;4.17;2.50;;;9.60;99.90;;;;;;5011376;28;20412;-52
2024/02/22 06:23:05;;;;;;;5.50;2.50;;;9.60;99.90;;;;;;5011604;28;20030;-51
2024/02/22 06:25:30;;;;;;;6.97;2.73;;;9.70;99.90;;;;;;5011586;28;20034;-50
2024/02/22 06:27:56;;;;;;;6.60;2.30;;;9.60;99.90;;;;;;5011610;28;20033;-52
2024/02/22 06:30:22;;;;;;;6.93;2.40;;;9.60;99.90;;;;;;5011322;28;20088;-51
2024/02/22 06:32:49;;;;;;;4.50;2.43;;;9.60;99.90;;;;;;5010252;28;20022;-50
2024/02/22 06:35:17;;;;;;;5.43;2.07;;;9.60;99.90;;;;;;5011499;28;20029;-56
2024/02/22 06:37:44;;;;;;;3.10;1.77;;;9.60;99.90;;;;;;5011632;28;20107;-51
2024/02/22 06:40:10;;;;;;;2.33;1.27;;;9.60;99.90;;;;;;5011406;28;20129;-52
2024/02/22 06:42:37;;;;;;;4.00;2.00;;;9.60;99.90;;;;;;5011850;28;20022;-50
2024/02/22 06:45:03;;;;;;;3.50;1.70;;;9.60;99.90;;;;;;5012222;28;20148;-51
2024/02/22 06:47:29;;;;;;;3.87;2.07;;;9.60;99.90;;;;;;5012059;28;20065;-53
2024/02/22 06:49:55;;;;;;;4.10;1.87;;;9.60;99.90;;;;;;5012350;28;20110;-51
2024/02/22 06:52:22;;;;;;;2.60;1.63;;;9.70;99.90;;;;;;5012225;28;20033;-50
2024/02/22 06:54:50;;;;;;;3.20;1.60;;;9.70;99.90;;;;;;5011953;28;20112;-55
2024/02/22 06:57:16;;;;;;;3.77;1.60;;;9.70;99.90;;;;;;5010349;28;20037;-55
2024/02/22 06:59:42;;;;;;;3.50;2.10;;;9.60;99.90;;;;;;5009084;28;20038;-53
2024/02/22 07:02:07;;;;;;;2.53;1.40;;;9.60;99.90;;;;;;5010967;28;20030;-53
2024/02/22 07:04:33;;;;;;;3.20;1.77;;;9.60;99.90;;;;;;5010976;28;20117;-51
2024/02/22 07:06:59;;;;;;;3.40;1.50;;;9.60;99.90;;;;;;5010736;28;20034;-50
2024/02/22 07:09:24;;;;;;;4.23;1.87;;;9.70;99.90;;;;;;5009195;28;20034;-51
2024/02/22 07:11:50;;;;;;;2.47;1.33;;;9.70;99.90;;;;;;5010679;28;20037;-53
2024/02/22 07:14:16;;;;;;;2.13;1.40;;;9.80;99.90;;;;;;5010746;28;20058;-51
2024/02/22 07:16:41;;;;;;;2.33;1.43;;;9.90;99.90;;;;;;5010958;28;20026;-52
2024/02/22 07:19:08;;;;;;;2.13;1.10;;;9.90;99.90;;;;;;5011041;28;20029;-55
2024/02/22 07:21:35;;;;;;;3.03;1.10;;;10.00;99.90;;;;;;5010561;28;20134;-50
2024/02/22 07:24:03;;;;;;;2.43;1.50;;;10.00;99.90;;;;;;5009281;28;20180;-54
2024/02/22 07:26:32;;;;;;;1.63;1.07;;;10.00;99.90;;;;;;5009180;28;20088;-54
2024/02/22 07:28:59;;;;;;;2.03;1.20;;;10.00;99.90;;;;;;5010652;28;20025;-54
2024/02/22 07:31:25;;;;;;;3.43;1.50;;;10.10;99.90;;;;;;5010271;28;20107;-56
2024/02/22 07:33:51;;;;;;;7.20;2.13;;;10.00;99.90;;;;;;5010864;28;20113;-51
2024/02/22 07:36:17;;;;;;;5.43;2.00;;;10.10;99.90;;;;;;5010488;28;20129;-56
2024/02/22 07:38:42;;;;;;;4.63;2.70;;;10.10;99.90;;;;;;5020214;28;20171;-56
2024/02/22 07:41:15;;;;;;;5.33;2.60;;;10.10;99.90;;;;;;5029985;28;20424;-54
2024/02/22 07:43:44;;;;;;;3.93;2.60;;;10.20;99.90;;;;;;5030153;28;20095;-55
2024/02/22 07:46:11;;;;;;;3.70;2.20;;;10.20;99.90;;;;;;5028660;28;20105;-52
2024/02/22 07:48:40;;;;;;;5.00;3.13;;;10.10;99.90;;;;;;5030310;28;20699;-52
2024/02/22 07:51:07;;;;;;;3.78;2.10;;;10.10;99.90;;;;;;5029792;28;20037;-52
2024/02/22 07:53:34;;;;;;;5.97;2.80;;;10.10;99.90;;;;;;5030527;28;20120;-54
2024/02/22 07:56:07;;;;;;;5.37;2.57;;;10.10;99.90;;;;;;5030364;28;20026;-54
2024/02/22 07:58:56;;;;;;;5.87;3.23;;;10.10;99.90;;;;;;5031573;28;20094;-55
2024/02/22 08:01:22;;;;;;;14.07;6.07;;;10.20;99.90;;;;;;5033763;28;20034;-49
2024/02/22 08:03:53;;;;;;;15.63;7.37;;;10.10;99.90;;;;;;5034121;28;20036;-49
2024/02/22 08:06:19;;;;;;;7.37;4.17;;;10.20;99.90;;;;;;5034023;28;20555;-50
2024/02/22 08:08:46;;;;;;;5.27;3.30;;;10.20;99.90;;;;;;5033935;28;20085;-54
2024/02/22 08:11:12;;;;;;;5.43;2.73;;;10.30;99.90;;;;;;5033490;28;20423;-52
2024/02/22 08:13:37;;;;;;;5.57;2.40;;;10.40;99.90;;;;;;5033865;28;20035;-56
2024/02/22 08:16:07;;;;;;;3.43;2.00;;;10.40;99.90;;;;;;5017193;28;20136;-54
2024/02/22 08:18:38;;;;;;;7.50;2.53;;;10.50;99.90;;;;;;5012556;28;20026;-54
2024/02/22 08:21:06;;;;;;;2.93;1.67;;;10.50;99.90;;;;;;5012528;28;20037;-54
2024/02/22 08:23:31;;;;;;;3.40;1.90;;;10.50;99.90;;;;;;5012773;28;20030;-52
2024/02/22 08:25:57;;;;;;;3.63;1.57;;;10.50;99.90;;;;;;5013325;28;20497;-55
2024/02/22 08:28:24;;;;;;;4.87;2.63;;;10.50;99.90;;;;;;5013345;28;20367;-56
2024/02/22 08:30:50;;;;;;;4.23;2.03;;;10.60;99.90;;;;;;5013119;28;20030;-56
2024/02/22 08:33:16;;;;;;;2.50;1.23;;;10.50;99.90;;;;;;5013274;28;20088;-50
2024/02/22 08:35:42;;;;;;;3.47;2.47;;;10.50;99.90;;;;;;5013384;28;20022;-55
2024/02/22 08:38:09;;;;;;;2.50;1.47;;;10.50;99.90;;;;;;5013304;28;20471;-53
2024/02/22 08:40:36;;;;;;;2.33;1.63;;;10.50;99.90;;;;;;5010628;28;20033;-52
2024/02/22 08:43:02;;;;;;;3.23;1.70;;;10.50;99.90;;;;;;5011798;28;20049;-53
2024/02/22 08:45:28;;;;;;;2.80;1.10;;;10.50;99.90;;;;;;5012789;28;20405;-51
2024/02/22 08:47:54;;;;;;;2.53;1.17;;;10.50;99.90;;;;;;5012957;28;20112;-53
2024/02/22 08:50:20;;;;;;;1.90;1.07;;;10.50;99.90;;;;;;5012172;28;20335;-54
2024/02/22 08:52:47;;;;;;;3.73;1.70;;;10.50;99.90;;;;;;5012713;28;20045;-51
2024/02/22 08:55:13;;;;;;;2.63;1.73;;;10.50;99.90;;;;;;5012609;28;20089;-53
2024/02/22 08:57:39;;;;;;;3.90;1.67;;;10.50;99.90;;;;;;5012459;28;20373;-55
2024/02/22 09:00:10;;;;;;;2.90;1.80;;;10.50;99.90;;;;;;5012319;28;20037;-55
2024/02/22 09:02:36;;;;;;;1.37;1.00;;;10.50;99.90;;;;;;5010619;28;20049;-56
2024/02/22 09:05:02;;;;;;;4.43;2.30;;;10.50;99.90;;;;;;5012524;28;20084;-55
2024/02/22 09:07:27;;;;;;;4.57;1.67;;;10.60;99.90;;;;;;5012394;28;20109;-54
2024/02/22 09:09:53;;;;;;;4.00;1.47;;;10.60;99.90;;;;;;5012227;28;20037;-56
2024/02/22 09:12:19;;;;;;;4.93;2.07;;;10.60;99.90;;;;;;5012335;28;20022;-56
2024/02/22 09:14:45;;;;;;;2.97;1.00;;;10.60;99.90;;;;;;5012301;28;20117;-56
2024/02/22 09:17:11;;;;;;;3.73;1.20;;;10.60;99.90;;;;;;5012527;28;20133;-55
2024/02/22 09:19:37;;;;;;;2.60;0.90;;;10.60;99.90;;;;;;5012355;28;20398;-56
2024/02/22 09:22:03;;;;;;;1.70;1.00;;;10.60;99.90;;;;;;5012064;28;20442;-56
2024/02/22 09:24:29;;;;;;;1.97;0.90;;;10.70;99.90;;;;;;5010462;28;20053;-55
2024/02/22 09:26:58;;;;;;;4.97;1.13;;;10.70;99.90;;;;;;5011158;28;20140;-55
2024/02/22 09:29:27;;;;;;;1.08;0.80;;;10.80;99.90;;;;;;5011486;28;20075;-56
2024/02/22 09:31:56;;;;;;;6.55;1.70;;;10.70;99.90;;;;;;5011910;28;20106;-55
2024/02/22 09:34:25;;;;;;;4.85;1.65;;;10.80;99.90;;;;;;5011854;28;20038;-56
2024/02/22 09:36:51;;;;;;;3.47;1.20;;;10.70;99.90;;;;;;5012114;28;20045;-56
2024/02/22 09:39:16;;;;;;;2.93;1.40;;;10.70;99.90;;;;;;5011007;28;20042;-56
2024/02/22 09:41:43;;;;;;;8.03;2.67;;;10.70;99.90;;;;;;5011724;28;20067;-55
2024/02/22 09:44:13;;;;;;;4.83;2.47;;;10.80;99.90;;;;;;5011523;28;20416;-55
2024/02/22 09:46:39;;;;;;;3.33;1.20;;;10.80;99.90;;;;;;5011811;28;20030;-54
2024/02/22 09:49:06;;;;;;;3.23;1.10;;;10.90;99.90;;;;;;5011807;28;20033;-56
2024/02/22 09:51:35;;;;;;;4.23;1.20;;;10.90;99.90;;;;;;5011214;28;20030;-53
2024/02/22 09:54:01;;;;;;;1.40;0.88;;;10.90;99.90;;;;;;5011585;28;20117;-56
2024/02/22 09:56:27;;;;;;;1.80;0.70;;;10.90;99.90;;;;;;5011668;28;20105;-55
2024/02/22 09:58:53;;;;;;;1.80;1.17;;;10.80;99.90;;;;;;5011338;28;20060;-55
2024/02/22 10:01:20;;;;;;;3.90;1.43;;;10.80;99.90;;;;;;5011801;28;20450;-53
2024/02/22 10:03:46;;;;;;;2.30;1.20;;;10.80;99.90;;;;;;5012806;28;20037;-54
2024/02/22 10:06:17;;;;;;;2.60;1.00;;;10.80;99.90;;;;;;5012042;28;20546;-56
2024/02/22 10:08:43;;;;;;;2.07;1.00;;;10.90;99.90;;;;;;5011502;28;20406;-51
2024/02/22 10:11:09;;;;;;;3.10;1.20;;;11.00;99.90;;;;;;5010740;28;20058;-55
2024/02/22 10:13:35;;;;;;;1.70;1.10;;;11.00;99.90;;;;;;5011252;28;20435;-55
2024/02/22 10:16:14;;;;;;;6.07;1.90;;;11.00;99.90;;;;;;5010585;28;20030;-56
2024/02/22 10:18:40;;;;;;;2.10;1.00;;;11.00;99.90;;;;;;5011333;28;20167;-56
2024/02/22 10:21:13;;;;;;;2.37;0.87;;;11.00;99.90;;;;;;5008480;28;20092;-56
2024/02/22 10:23:38;;;;;;;1.27;0.90;;;11.10;99.90;;;;;;5010841;28;20081;-55
2024/02/22 10:26:04;;;;;;;1.83;0.70;;;11.10;99.90;;;;;;5010498;28;20403;-55
2024/02/22 10:28:31;;;;;;;1.30;0.87;;;11.10;99.90;;;;;;5011170;28;20463;-55
2024/02/22 10:31:04;;;;;;;0.80;0.53;;;11.20;99.90;;;;;;5010450;28;20101;-56
2024/02/22 10:33:30;;;;;;;1.40;0.70;;;11.30;99.90;;;;;;5010422;28;20041;-55
2024/02/22 10:36:00;;;;;;;1.03;0.47;;;11.30;99.90;;;;;;5009437;28;20034;-57
2024/02/22 10:38:30;;;;;;;0.70;0.50;;;11.40;99.90;;;;;;5010392;28;20486;-54
2024/02/22 10:40:56;;;;;;;0.47;0.40;;;11.50;99.90;;;;;;5010071;28;20100;-56
2024/02/22 10:43:25;;;;;;;0.73;0.40;;;11.60;99.90;;;;;;5009061;28;20041;-55
2024/02/22 10:45:57;;;;;;;0.63;0.50;;;11.60;99.90;;;;;;5010249;28;20117;-55
2024/02/22 10:48:25;;;;;;;0.53;0.30;;;11.70;99.90;;;;;;5008648;28;20538;-55
2024/02/22 10:50:52;;;;;;;1.23;0.47;;;11.90;99.90;;;;;;5010315;28;20112;-55
2024/02/22 10:53:20;;;;;;;0.63;0.28;;;12.20;99.90;;;;;;5010623;28;20030;-55
2024/02/22 10:55:49;;;;;;;0.50;0.40;;;12.50;99.90;;;;;;5010381;28;20038;-56
2024/02/22 10:58:19;;;;;;;1.67;0.50;;;12.80;99.90;;;;;;5010157;28;20026;-56
2024/02/22 11:00:47;;;;;;;0.60;0.52;;;12.80;99.90;;;;;;5009362;28;20038;-55
2024/02/22 11:03:15;;;;;;;2.05;0.28;;;12.80;99.90;;;;;;5010037;28;20047;-54
2024/02/22 11:05:40;;;;;;;1.45;0.32;;;12.80;99.90;;;;;;5010214;28;20037;-53
2024/02/22 11:08:06;;;;;;;1.58;0.30;;;12.80;99.90;;;;;;5010077;28;20405;-54
2024/02/22 11:10:32;;;;;;;0.82;0.32;;;12.80;99.90;;;;;;5009831;28;20034;-50
2024/02/22 11:13:03;;;;;;;0.70;0.30;;;12.90;99.90;;;;;;5008616;28;20048;-54
2024/02/22 11:15:35;;;;;;;0.90;0.57;;;13.00;99.90;;;;;;5010962;28;20071;-57
2024/02/22 11:18:01;;;;;;;0.68;0.40;;;13.10;99.90;;;;;;5011145;28;20037;-57
2024/02/22 11:20:36;;;;;;;1.88;0.47;;;13.10;99.90;;;;;;5010577;28;20038;-56
2024/02/22 11:23:14;;;;;;;3.22;0.60;;;13.00;99.90;;;;;;5010339;28;20026;-52
2024/02/22 11:25:41;;;;;;;0.57;0.40;;;12.90;99.90;;;;;;4994923;28;20030;-55
2024/02/22 11:28:08;;;;;;;1.52;0.60;;;12.70;99.90;;;;;;5024303;28;20367;-55
2024/02/22 11:30:34;;;;;;;1.98;0.30;;;12.70;99.90;;;;;;5017047;28;20428;-55
2024/02/22 11:33:00;;;;;;;2.05;0.45;;;12.70;99.90;;;;;;5010248;28;20025;-51
2024/02/22 11:35:27;;;;;;;1.58;0.38;;;12.70;99.90;;;;;;5013676;28;20105;-55
2024/02/22 11:38:05;;;;;;;0.55;0.30;;;12.70;99.90;;;;;;5013794;28;20029;-55
2024/02/22 11:40:34;;;;;;;0.75;0.28;;;12.70;99.90;;;;;;5013906;28;20315;-55
2024/02/22 11:43:02;;;;;;;0.82;0.40;;;12.70;99.90;;;;;;5014045;28;20097;-52
2024/02/22 11:45:29;;;;;;;0.45;0.40;;;12.60;99.90;;;;;;5013673;28;20044;-57
2024/02/22 11:47:56;;;;;;;0.73;0.30;;;12.60;99.90;;;;;;5013980;28;20069;-53
2024/02/22 11:50:22;;;;;;;0.93;0.30;;;12.50;99.90;;;;;;5013847;28;20452;-52
2024/02/22 11:52:49;;;;;;;0.43;0.40;;;12.50;99.90;;;;;;5013944;28;20125;-52
2024/02/22 11:55:14;;;;;;;1.75;0.50;;;12.50;99.90;;;;;;5014013;28;20076;-51
2024/02/22 11:57:40;;;;;;;1.33;0.45;;;12.50;99.90;;;;;;5013814;28;20312;-54
2024/02/22 12:00:06;;;;;;;0.90;0.47;;;12.60;99.90;;;;;;5013476;28;20471;-54
2024/02/22 12:02:38;;;;;;;0.80;0.30;;;12.80;99.90;;;;;;5013799;28;20030;-51
2024/02/22 12:05:07;;;;;;;1.15;0.63;;;13.20;99.90;;;;;;5013674;28;20035;-53
2024/02/22 12:07:33;;;;;;;1.83;0.80;;;13.70;99.90;;;;;;5014125;28;20398;-53
2024/02/22 12:09:59;;;;;;;1.23;0.50;;;14.20;99.90;;;;;;5013698;28;20034;-51
2024/02/22 12:12:25;;;;;;;0.65;0.40;;;14.50;99.90;;;;;;5014071;28;20510;-54
2024/02/22 12:15:01;;;;;;;1.27;0.50;;;14.20;99.90;;;;;;5013591;28;20084;-53
2024/02/22 12:17:34;;;;;;;1.77;0.57;;;14.00;99.90;;;;;;5013710;28;20057;-57
2024/02/22 12:20:00;;;;;;;0.47;0.30;;;13.80;99.90;;;;;;5015083;28;20053;-52
2024/02/22 12:22:31;;;;;;;1.92;0.50;;;13.50;99.90;;;;;;5014093;28;20098;-55
2024/02/22 12:24:57;;;;;;;0.77;0.30;;;13.20;99.90;;;;;;5014395;28;20454;-58
2024/02/22 12:27:24;;;;;;;1.15;0.32;;;13.00;99.90;;;;;;5012500;28;20075;-57
2024/02/22 12:29:50;;;;;;;0.93;0.50;;;12.80;99.90;;;;;;5012265;28;20038;-52
2024/02/22 12:32:16;;;;;;;2.17;0.50;;;12.70;99.90;;;;;;5012211;28;20513;-55
2024/02/22 12:34:42;;;;;;;1.23;0.70;;;12.60;99.90;;;;;;5012183;28;20061;-53
2024/02/22 12:37:08;;;;;;;2.25;0.40;;;12.50;99.90;;;;;;5012486;28;20037;-54
2024/02/22 12:39:34;;;;;;;1.20;0.50;;;12.40;99.90;;;;;;5011670;28;20482;-54
2024/02/22 12:42:04;;;;;;;2.60;0.50;;;12.30;99.90;;;;;;5012638;28;20034;-53
2024/02/22 12:44:30;;;;;;;2.85;0.50;;;12.20;99.90;;;;;;5012185;28;20042;-53
2024/02/22 12:46:58;;;;;;;0.77;0.50;;;12.10;99.90;;;;;;5012729;28;20474;-51
2024/02/22 12:49:25;;;;;;;2.50;0.60;;;12.00;99.90;;;;;;5012222;28;20050;-55